createdAt,value
2023-01-05T00:01:44.254Z,-2.97
2023-01-05T00:04:13.798Z,-3.21
2023-01-05T00:06:43.350Z,-3.48
2023-01-05T00:09:14.916Z,-3.68
2023-01-05T00:12:03.016Z,-3.72
2023-01-05T00:14:51.796Z,-3.78
2023-01-05T00:17:40.509Z,-3.90
2023-01-05T00:20:33.731Z,-3.88
2023-01-05T00:23:03.015Z,-3.97
2023-01-05T00:25:34.003Z,-4.01
2023-01-05T00:28:04.507Z,-3.98
2023-01-05T00:30:35.950Z,-4.06
2023-01-05T00:33:05.188Z,-4.15
2023-01-05T00:35:34.247Z,-4.28
2023-01-05T00:38:03.536Z,-4.37
2023-01-05T00:40:33.271Z,-4.41
2023-01-05T00:43:03.693Z,-4.52
2023-01-05T00:45:32.753Z,-4.55
2023-01-05T00:48:01.747Z,-4.69
2023-01-05T00:50:30.856Z,-4.72
2023-01-05T00:52:59.818Z,-4.76
2023-01-05T00:55:28.974Z,-4.79
2023-01-05T00:57:58.069Z,-4.76
2023-01-05T01:00:28.494Z,-4.76
2023-01-05T01:02:57.610Z,-4.67
2023-01-05T01:05:26.662Z,-4.61
2023-01-05T01:07:55.651Z,-4.58
2023-01-05T01:10:25.576Z,-4.57
2023-01-05T01:12:54.867Z,-4.55
2023-01-05T01:15:23.993Z,-4.54
2023-01-05T01:17:54.491Z,-4.52
2023-01-05T01:20:23.564Z,-4.54
2023-01-05T01:22:53.862Z,-4.55
2023-01-05T01:25:22.813Z,-4.51
2023-01-05T01:27:51.830Z,-4.58
2023-01-05T01:30:20.819Z,-4.60
2023-01-05T01:32:49.750Z,-4.61
2023-01-05T01:35:20.133Z,-4.65
2023-01-05T01:37:49.165Z,-4.71
2023-01-05T01:40:18.332Z,-4.74
2023-01-05T01:42:47.664Z,-4.72
2023-01-05T01:45:21.302Z,-4.67
2023-01-05T01:47:54.387Z,-4.72
2023-01-05T01:50:30.378Z,-4.71
2023-01-05T01:53:04.217Z,-4.77
2023-01-05T01:55:34.831Z,-4.72
2023-01-05T01:58:11.432Z,-4.79
2023-01-05T02:00:42.532Z,-4.85
2023-01-05T02:03:11.921Z,-4.85
2023-01-05T02:05:42.507Z,-4.92
2023-01-05T02:08:13.069Z,-4.96
2023-01-05T02:10:59.167Z,-4.96
2023-01-05T02:13:51.169Z,-5.01
2023-01-05T02:16:49.860Z,-5.04
2023-01-05T02:19:54.544Z,-5.11
2023-01-05T02:22:49.383Z,-5.11
2023-01-05T02:25:39.080Z,-5.17
2023-01-05T02:28:20.342Z,-5.23
2023-01-05T02:31:03.188Z,-5.25
2023-01-05T02:34:08.100Z,-5.22
2023-01-05T02:36:43.831Z,-5.21
2023-01-05T02:39:17.997Z,-5.23
2023-01-05T02:41:53.926Z,-5.21
2023-01-05T02:44:23.541Z,-5.16
2023-01-05T02:47:05.083Z,-5.21
2023-01-05T02:49:37.246Z,-5.21
2023-01-05T02:52:09.698Z,-5.17
2023-01-05T02:54:45.752Z,-5.29
2023-01-05T02:57:19.506Z,-5.29
2023-01-05T02:59:53.606Z,-5.37
2023-01-05T03:02:32.339Z,-5.43
2023-01-05T03:05:07.642Z,-5.48
2023-01-05T03:07:39.082Z,-5.47
2023-01-05T03:10:25.809Z,-5.50
2023-01-05T03:13:12.672Z,-5.51
2023-01-05T03:15:45.085Z,-5.55
2023-01-05T03:18:20.574Z,-5.53
2023-01-05T03:20:56.076Z,-5.56
2023-01-05T03:23:43.139Z,-5.56
2023-01-05T03:26:31.601Z,-5.58
2023-01-05T03:29:22.067Z,-5.64
2023-01-05T03:32:16.716Z,-5.56
2023-01-05T03:35:11.130Z,-5.59
2023-01-05T03:37:46.454Z,-5.67
2023-01-05T03:40:21.801Z,-5.69
2023-01-05T03:42:54.088Z,-5.73
2023-01-05T03:45:25.744Z,-5.77
2023-01-05T03:47:56.222Z,-5.79
2023-01-05T03:50:30.070Z,-5.84
2023-01-05T03:53:00.187Z,-5.85
2023-01-05T03:55:32.087Z,-5.90
2023-01-05T03:58:01.248Z,-5.82
2023-01-05T04:00:31.363Z,-5.83
2023-01-05T04:03:05.742Z,-5.88
2023-01-05T04:05:36.261Z,-5.90
2023-01-05T04:08:06.976Z,-5.92
2023-01-05T04:10:37.961Z,-5.97
2023-01-05T04:13:07.394Z,-5.98
2023-01-05T04:15:36.471Z,-5.99
2023-01-05T04:18:07.625Z,-6.01
2023-01-05T04:20:38.312Z,-6.06
2023-01-05T04:23:08.802Z,-6.08
2023-01-05T04:25:38.462Z,-6.11
2023-01-05T04:28:21.639Z,-6.15
2023-01-05T04:30:52.711Z,-6.15
2023-01-05T04:33:23.542Z,-6.14
2023-01-05T04:35:54.468Z,-6.13
2023-01-05T04:38:27.156Z,-6.11
2023-01-05T04:40:57.370Z,-6.10
2023-01-05T04:43:27.985Z,-6.15
2023-01-05T04:46:00.662Z,-6.12
2023-01-05T04:48:32.085Z,-6.17
2023-01-05T04:51:03.625Z,-6.21
2023-01-05T04:53:36.483Z,-6.22
2023-01-05T04:56:07.855Z,-6.25
2023-01-05T04:58:42.097Z,-6.26
2023-01-05T05:01:11.777Z,-6.32
2023-01-05T05:03:42.829Z,-6.32
2023-01-05T05:06:17.705Z,-6.35
2023-01-05T05:08:48.303Z,-6.33
2023-01-05T05:11:17.945Z,-6.32
2023-01-05T05:13:49.817Z,-6.37
2023-01-05T05:16:19.231Z,-6.42
2023-01-05T05:18:49.847Z,-6.46
2023-01-05T05:21:25.461Z,-6.45
2023-01-05T05:23:54.560Z,-6.42
2023-01-05T05:26:23.651Z,-6.50
2023-01-05T05:28:53.388Z,-6.46
2023-01-05T05:31:22.627Z,-6.47
2023-01-05T05:33:51.653Z,-6.50
2023-01-05T05:36:20.679Z,-6.48
2023-01-05T05:38:51.070Z,-6.46
2023-01-05T05:41:20.099Z,-6.44
2023-01-05T05:43:49.090Z,-6.45
2023-01-05T05:46:18.243Z,-6.47
2023-01-05T05:48:47.299Z,-6.49
2023-01-05T05:51:16.272Z,-6.48
2023-01-05T05:53:45.417Z,-6.48
2023-01-05T05:56:15.840Z,-6.44
2023-01-05T05:58:45.069Z,-6.47
2023-01-05T06:01:14.439Z,-6.47
2023-01-05T06:03:43.560Z,-6.47
2023-01-05T06:06:12.617Z,-6.47
2023-01-05T06:08:41.703Z,-6.50
2023-01-05T06:11:10.714Z,-6.50
2023-01-05T06:13:41.296Z,-6.47
2023-01-05T06:16:10.463Z,-6.45
2023-01-05T06:18:39.545Z,-6.46
2023-01-05T06:21:09.241Z,-6.42
2023-01-05T06:23:38.233Z,-6.40
2023-01-05T06:26:07.571Z,-6.39
2023-01-05T06:28:36.831Z,-6.34
2023-01-05T06:31:07.839Z,-6.33
2023-01-05T06:33:36.941Z,-6.33
2023-01-05T06:36:06.219Z,-6.31
2023-01-05T06:38:35.490Z,-6.28
2023-01-05T06:41:04.519Z,-6.28
2023-01-05T06:43:33.578Z,-6.25
2023-01-05T06:46:02.655Z,-6.19
2023-01-05T06:48:33.086Z,-6.19
2023-01-05T06:51:02.048Z,-6.15
2023-01-05T06:53:31.091Z,-6.15
2023-01-05T06:56:00.680Z,-6.17
2023-01-05T06:58:29.664Z,-6.16
2023-01-05T07:00:58.800Z,-6.18
2023-01-05T07:03:27.899Z,-6.12
2023-01-05T07:05:58.410Z,-6.10
2023-01-05T07:08:27.439Z,-6.07
2023-01-05T07:10:56.478Z,-6.04
2023-01-05T07:13:25.633Z,-5.99
2023-01-05T07:15:54.658Z,-6.00
2023-01-05T07:18:23.759Z,-5.98
2023-01-05T07:20:52.852Z,-5.94
2023-01-05T07:23:23.297Z,-5.86
2023-01-05T07:25:52.304Z,-5.82
2023-01-05T07:28:21.349Z,-5.88
2023-01-05T07:30:53.577Z,-5.84
2023-01-05T07:33:22.961Z,-5.80
2023-01-05T07:35:52.036Z,-5.72
2023-01-05T07:38:22.493Z,-5.63
2023-01-05T07:40:51.552Z,-5.39
2023-01-05T07:43:20.510Z,-5.33
2023-01-05T07:45:49.519Z,-5.30
2023-01-05T07:48:23.386Z,-5.32
2023-01-05T07:50:52.803Z,-5.21
2023-01-05T07:53:23.264Z,-5.23
2023-01-05T07:55:59.258Z,-5.33
2023-01-05T07:58:29.152Z,-5.36
2023-01-05T08:00:58.582Z,-5.37
2023-01-05T08:03:27.646Z,-5.27
2023-01-05T08:05:56.705Z,-5.22
2023-01-05T08:08:27.138Z,-5.18
2023-01-05T08:10:55.128Z,-5.21
2023-01-05T08:13:41.365Z,-5.22
2023-01-05T08:16:10.655Z,-5.19
2023-01-05T08:18:39.808Z,-5.17
2023-01-05T08:21:09.990Z,-5.22
2023-01-05T08:23:40.805Z,-5.19
2023-01-05T08:26:12.823Z,-5.25
2023-01-05T08:28:42.099Z,-5.27
2023-01-05T08:31:16.640Z,-5.29
2023-01-05T08:33:46.293Z,-5.32
2023-01-05T08:36:17.324Z,-5.29
2023-01-05T08:38:49.365Z,-5.22
2023-01-05T08:41:19.716Z,-5.24
2023-01-05T08:43:52.280Z,-5.30
2023-01-05T08:46:22.426Z,-5.44
2023-01-05T08:48:52.193Z,-5.59
2023-01-05T08:51:21.756Z,-5.78
2023-01-05T08:53:52.279Z,-5.91
2023-01-05T08:56:21.566Z,-5.95
2023-01-05T08:58:50.641Z,-5.93
2023-01-05T09:01:22.139Z,-6.03
2023-01-05T09:03:51.336Z,-5.88
2023-01-05T09:06:20.511Z,-5.95
2023-01-05T09:08:51.343Z,-6.05
2023-01-05T09:11:22.679Z,-6.09
2023-01-05T09:13:54.102Z,-6.08
2023-01-05T09:16:56.831Z,-6.07
2023-01-05T09:19:14.545Z,-6.05
2023-01-05T09:21:45.403Z,-6.07
2023-01-05T09:24:16.141Z,-6.22
2023-01-05T09:26:45.701Z,-6.22
2023-01-05T09:29:15.255Z,-6.20
2023-01-05T09:31:45.293Z,-6.27
2023-01-05T09:34:14.235Z,-6.21
2023-01-05T09:36:43.641Z,-6.17
2023-01-05T09:39:14.321Z,-6.19
2023-01-05T09:41:49.042Z,-6.15
2023-01-05T09:44:29.870Z,-6.12
2023-01-05T09:47:03.757Z,-6.22
2023-01-05T09:49:35.321Z,-6.26
2023-01-05T09:52:10.383Z,-6.38
2023-01-05T09:54:40.027Z,-6.42
2023-01-05T09:57:18.729Z,-6.54
2023-01-05T09:59:50.372Z,-6.55
2023-01-05T10:02:26.386Z,-6.54
2023-01-05T10:04:56.968Z,-6.49
2023-01-05T10:07:36.313Z,-6.42
2023-01-05T10:10:15.019Z,-6.40
2023-01-05T10:13:03.604Z,-6.38
2023-01-05T10:15:38.297Z,-6.34
2023-01-05T10:18:13.392Z,-6.51
2023-01-05T10:20:51.532Z,-6.46
2023-01-05T10:23:32.016Z,-6.46
2023-01-05T10:26:09.514Z,-6.55
2023-01-05T10:28:46.323Z,-6.64
2023-01-05T10:31:24.625Z,-6.63
2023-01-05T10:34:03.423Z,-6.64
2023-01-05T10:37:09.501Z,-6.58
2023-01-05T10:40:04.410Z,-6.60
2023-01-05T10:42:46.695Z,-6.71
2023-01-05T10:45:19.117Z,-6.75
2023-01-05T10:47:50.257Z,-6.71
2023-01-05T10:50:30.737Z,-6.86
2023-01-05T10:53:00.567Z,-6.88
2023-01-05T10:55:31.484Z,-6.91
2023-01-05T10:58:00.517Z,-6.91
2023-01-05T11:00:44.051Z,-6.96
2023-01-05T11:03:16.038Z,-7.05
2023-01-05T11:05:47.611Z,-7.14
2023-01-05T11:08:19.746Z,-7.14
2023-01-05T11:10:54.314Z,-7.17
2023-01-05T11:13:35.712Z,-7.22
2023-01-05T11:16:13.344Z,-7.28
2023-01-05T11:18:49.871Z,-7.32
2023-01-05T11:21:21.478Z,-7.34
2023-01-05T11:23:52.253Z,-7.38
2023-01-05T11:26:30.437Z,-7.38
2023-01-05T11:29:17.521Z,-7.38
2023-01-05T11:31:51.498Z,-7.43
2023-01-05T11:34:32.323Z,-7.46
2023-01-05T11:37:07.885Z,-7.53
2023-01-05T11:39:42.104Z,-7.60
2023-01-05T11:42:18.842Z,-7.64
2023-01-05T11:44:55.251Z,-7.79
2023-01-05T11:47:30.865Z,-7.83
2023-01-05T11:50:08.814Z,-7.85
2023-01-05T11:52:42.000Z,-7.87
2023-01-05T11:55:35.420Z,-7.94
2023-01-05T11:58:33.884Z,-7.99
2023-01-05T12:01:34.927Z,-8.05
2023-01-05T12:04:14.340Z,-8.15
2023-01-05T12:07:02.754Z,-8.14
2023-01-05T12:09:35.493Z,-8.19
2023-01-05T12:12:22.823Z,-8.21
2023-01-05T12:15:13.556Z,-8.29
2023-01-05T12:17:55.192Z,-8.45
2023-01-05T12:20:39.099Z,-8.60
2023-01-05T12:23:36.619Z,-8.67
2023-01-05T12:26:19.854Z,-8.75
2023-01-05T12:33:44.721Z,-9.08
2023-01-05T12:35:44.161Z,-9.23
2023-01-05T12:38:38.779Z,-9.38
2023-01-05T12:41:24.243Z,-9.44
2023-01-05T12:44:01.724Z,-9.55
2023-01-05T12:46:48.827Z,-9.69
2023-01-05T12:49:20.974Z,-9.77
2023-01-05T12:52:01.030Z,-9.78
2023-01-05T12:54:43.326Z,-9.82
2023-01-05T12:57:16.392Z,-9.91
2023-01-05T12:59:54.287Z,-9.89
2023-01-05T13:02:33.716Z,-9.98
2023-01-05T13:05:08.774Z,-10.10
2023-01-05T13:07:42.186Z,-10.12
2023-01-05T13:10:21.184Z,-10.25
2023-01-05T13:12:56.098Z,-10.18
2023-01-05T13:15:30.807Z,-10.25
2023-01-05T13:18:02.466Z,-10.27
2023-01-05T13:20:41.635Z,-10.31
2023-01-05T13:23:18.849Z,-10.37
2023-01-05T13:25:54.294Z,-10.40
2023-01-05T13:28:27.195Z,-10.52
2023-01-05T13:31:29.133Z,-10.48
2023-01-05T13:34:33.465Z,-10.54
2023-01-05T13:37:22.703Z,-10.58
2023-01-05T13:40:08.495Z,-10.64
2023-01-05T13:42:59.140Z,-10.66
2023-01-05T13:45:49.699Z,-10.73
2023-01-05T13:48:45.257Z,-10.78
2023-01-05T13:51:42.965Z,-10.80
2023-01-05T13:54:18.007Z,-10.81
2023-01-05T13:56:49.564Z,-10.76
2023-01-05T13:59:35.167Z,-10.81
2023-01-05T14:02:30.238Z,-10.97
2023-01-05T14:05:00.191Z,-11.12
2023-01-05T14:07:29.867Z,-11.13
2023-01-05T14:09:59.722Z,-11.11
2023-01-05T14:12:48.409Z,-11.07
2023-01-05T14:15:42.234Z,-11.05
2023-01-05T14:18:12.106Z,-11.02
2023-01-05T14:20:46.833Z,-10.96
2023-01-05T14:23:34.184Z,-10.91
2023-01-05T14:26:03.885Z,-10.88
2023-01-05T14:28:55.578Z,-10.90
2023-01-05T14:31:53.699Z,-10.86
2023-01-05T14:34:26.343Z,-10.75
2023-01-05T14:37:24.257Z,-10.81
2023-01-05T14:40:00.408Z,-10.87
2023-01-05T14:42:39.991Z,-10.94
2023-01-05T14:45:22.741Z,-11.06
2023-01-05T14:47:55.445Z,-11.14
2023-01-05T14:50:43.653Z,-11.22
2023-01-05T14:53:15.600Z,-11.30
2023-01-05T14:56:20.057Z,-11.28
2023-01-05T14:59:12.370Z,-11.39
2023-01-05T15:01:51.526Z,-11.38
2023-01-05T15:04:25.844Z,-11.28
2023-01-05T15:07:08.635Z,-11.35
2023-01-05T15:10:07.285Z,-11.32
2023-01-05T15:12:53.912Z,-11.22
2023-01-05T15:15:45.319Z,-11.35
2023-01-05T15:18:37.219Z,-11.48
2023-01-05T15:21:31.179Z,-11.58
2023-01-05T15:24:47.718Z,-11.60
2023-01-05T15:27:29.651Z,-11.67
2023-01-05T15:30:27.627Z,-11.62
2023-01-05T15:33:09.214Z,-11.63
2023-01-05T15:35:45.088Z,-11.68
2023-01-05T15:38:20.775Z,-11.57
2023-01-05T15:40:55.069Z,-11.60
2023-01-05T15:43:24.694Z,-11.58
2023-01-05T15:45:56.580Z,-11.63
2023-01-05T15:48:33.088Z,-11.71
2023-01-05T15:51:05.972Z,-11.83
2023-01-05T15:53:38.449Z,-11.98
2023-01-05T15:56:26.112Z,-11.94
2023-01-05T16:02:41.557Z,-11.81
2023-01-05T16:05:15.513Z,-11.84
2023-01-05T16:07:55.060Z,-11.92
2023-01-05T16:10:28.985Z,-12.06
2023-01-05T16:13:02.393Z,-12.12
2023-01-05T16:15:35.193Z,-12.13
2023-01-05T16:18:13.031Z,-12.16
2023-01-05T16:20:46.901Z,-12.24
2023-01-05T16:23:23.010Z,-12.25
2023-01-05T16:25:56.117Z,-12.27
2023-01-05T16:28:26.844Z,-12.34
2023-01-05T16:30:56.541Z,-12.30
2023-01-05T16:33:35.125Z,-12.24
2023-01-05T16:36:10.221Z,-12.20
2023-01-05T16:38:40.681Z,-12.17
2023-01-05T16:41:23.945Z,-12.15
2023-01-05T16:43:58.508Z,-12.28
2023-01-05T16:46:35.434Z,-12.38
2023-01-05T16:49:41.238Z,-12.59
2023-01-05T16:52:24.989Z,-12.64
2023-01-05T16:55:28.828Z,-12.61
2023-01-05T16:57:58.992Z,-12.56
2023-01-05T17:00:39.752Z,-12.49
2023-01-05T17:03:30.602Z,-12.48
2023-01-05T17:06:01.756Z,-12.47
2023-01-05T17:08:36.044Z,-12.48
2023-01-05T17:11:12.535Z,-12.49
2023-01-05T17:13:44.721Z,-12.40
2023-01-05T17:16:15.049Z,-12.48
2023-01-05T17:18:44.030Z,-12.58
2023-01-05T17:21:17.374Z,-12.58
2023-01-05T17:23:49.037Z,-12.77
2023-01-05T17:26:23.209Z,-12.82
2023-01-05T17:28:55.588Z,-12.91
2023-01-05T17:31:24.979Z,-13.01
2023-01-05T17:33:54.000Z,-13.09
2023-01-05T17:36:27.711Z,-13.14
2023-01-05T17:38:56.743Z,-13.25
2023-01-05T17:41:27.213Z,-13.28
2023-01-05T17:43:56.333Z,-13.42
2023-01-05T17:46:29.036Z,-13.38
2023-01-05T17:49:00.767Z,-13.45
2023-01-05T17:51:30.516Z,-13.57
2023-01-05T17:54:00.751Z,-13.71
2023-01-05T17:59:05.795Z,-13.64
2023-01-05T18:01:34.989Z,-13.81
2023-01-05T18:04:04.282Z,-13.92
2023-01-05T18:06:33.484Z,-14.01
2023-01-05T18:09:02.682Z,-13.98
2023-01-05T18:14:02.036Z,-13.97
2023-01-05T18:19:05.051Z,-14.09
2023-01-05T18:21:35.947Z,-14.13
2023-01-05T18:24:05.525Z,-14.07
2023-01-05T18:26:36.039Z,-14.14
2023-01-05T18:29:05.074Z,-14.13
2023-01-05T18:31:35.985Z,-14.19
2023-01-05T18:34:07.809Z,-14.20
2023-01-05T18:36:37.129Z,-14.27
2023-01-05T18:39:07.069Z,-14.26
2023-01-05T18:41:37.555Z,-14.34
2023-01-05T18:44:06.940Z,-14.38
2023-01-05T18:46:36.034Z,-14.38
2023-01-05T18:49:05.982Z,-14.40
2023-01-05T18:51:35.372Z,-14.42
2023-01-05T18:54:04.374Z,-14.22
2023-01-05T18:56:33.706Z,-14.47
2023-01-05T18:59:04.496Z,-14.69
2023-01-05T19:01:36.002Z,-14.77
2023-01-05T19:04:05.283Z,-14.62
2023-01-05T19:06:34.618Z,-14.77
2023-01-05T19:09:05.316Z,-14.93
2023-01-05T19:11:34.972Z,-14.93
2023-01-05T19:14:07.183Z,-15.01
2023-01-05T19:16:37.219Z,-15.01
2023-01-05T19:19:09.912Z,-15.10
2023-01-05T19:21:40.826Z,-15.16
2023-01-05T19:24:15.536Z,-15.17
2023-01-05T19:26:45.051Z,-15.25
2023-01-05T19:29:16.266Z,-15.27
2023-01-05T19:31:47.129Z,-15.33
2023-01-05T19:34:19.540Z,-15.37
2023-01-05T19:36:49.431Z,-15.48
2023-01-05T19:39:21.073Z,-15.51
2023-01-05T19:41:51.997Z,-15.45
2023-01-05T19:44:23.932Z,-15.46
2023-01-05T19:46:54.440Z,-15.51
2023-01-05T19:49:25.354Z,-15.44
2023-01-05T19:51:55.320Z,-15.59
2023-01-05T19:54:25.449Z,-15.59
2023-01-05T19:56:55.909Z,-15.53
2023-01-05T19:59:33.554Z,-15.61
2023-01-05T20:02:03.221Z,-15.73
2023-01-05T20:04:32.598Z,-15.70
2023-01-05T20:07:04.489Z,-15.67
2023-01-05T20:09:34.023Z,-15.70
2023-01-05T20:12:13.719Z,-15.70
2023-01-05T20:14:45.334Z,-15.76
2023-01-05T20:17:15.119Z,-15.74
2023-01-05T20:19:44.252Z,-15.74
2023-01-05T20:22:14.968Z,-15.72
2023-01-05T20:24:44.711Z,-15.86
2023-01-05T20:27:17.055Z,-16.11
2023-01-05T20:29:47.624Z,-16.20
2023-01-05T20:32:19.900Z,-16.22
2023-01-05T20:34:53.173Z,-16.26
2023-01-05T20:37:24.057Z,-16.50
2023-01-05T20:39:53.200Z,-16.58
2023-01-05T20:42:22.286Z,-16.59
2023-01-05T20:44:53.102Z,-16.65
2023-01-05T20:47:22.127Z,-16.66
2023-01-05T20:49:51.733Z,-16.75
2023-01-05T20:52:20.727Z,-16.84
2023-01-05T20:54:52.686Z,-16.85
2023-01-05T20:57:21.800Z,-17.03
2023-01-05T20:59:52.359Z,-17.37
2023-01-05T21:02:24.268Z,-17.60
2023-01-05T21:04:54.403Z,-17.72
2023-01-05T21:07:24.219Z,-17.86
2023-01-05T21:09:53.927Z,-17.98
2023-01-05T21:12:22.972Z,-17.85
2023-01-05T21:14:53.434Z,-17.84
2023-01-05T21:17:22.720Z,-17.92
2023-01-05T21:19:52.052Z,-18.11
2023-01-05T21:22:21.684Z,-18.30
2023-01-05T21:24:50.612Z,-18.36
2023-01-05T21:27:19.691Z,-18.56
2023-01-05T21:29:48.684Z,-18.70
2023-01-05T21:32:19.203Z,-18.80
2023-01-05T21:34:48.214Z,-18.84
2023-01-05T21:37:17.555Z,-18.95
2023-01-05T21:39:46.566Z,-19.06
2023-01-05T21:42:33.129Z,-19.16
2023-01-05T21:45:02.492Z,-19.30
2023-01-05T21:47:36.088Z,-19.39
2023-01-05T21:50:05.627Z,-19.53
2023-01-05T21:52:52.182Z,-19.47
2023-01-05T21:55:39.040Z,-19.61
2023-01-05T21:58:08.168Z,-19.55
2023-01-05T22:00:37.308Z,-19.68
2023-01-05T22:03:07.839Z,-19.73
2023-01-05T22:05:36.987Z,-19.78
2023-01-05T22:08:06.338Z,-19.86
2023-01-05T22:10:35.404Z,-19.94
2023-01-05T22:13:06.424Z,-19.99
2023-01-05T22:15:35.549Z,-20.03
2023-01-05T22:18:05.072Z,-19.98
2023-01-05T22:20:35.434Z,-19.87
2023-01-05T22:23:04.471Z,-19.80
2023-01-05T22:25:35.709Z,-20.01
2023-01-05T22:28:05.246Z,-20.05
2023-01-05T22:30:34.988Z,-19.87
2023-01-05T22:33:04.033Z,-19.96
2023-01-05T22:35:34.505Z,-19.98
2023-01-05T22:38:03.579Z,-19.79
2023-01-05T22:40:32.664Z,-19.92
2023-01-05T22:43:01.741Z,-19.95
2023-01-05T22:45:33.292Z,-20.01
2023-01-05T22:48:02.649Z,-19.98
2023-01-05T22:50:32.875Z,-20.03
2023-01-05T22:53:03.391Z,-20.10
2023-01-05T22:55:33.211Z,-20.37
2023-01-05T22:58:02.462Z,-20.24
2023-01-05T23:00:31.555Z,-20.47
2023-01-05T23:03:01.184Z,-20.50
2023-01-05T23:05:30.264Z,-20.54
2023-01-05T23:07:59.317Z,-20.61
2023-01-05T23:10:30.723Z,-20.75
2023-01-05T23:12:59.804Z,-20.77
2023-01-05T23:15:28.798Z,-20.85
2023-01-05T23:17:58.040Z,-20.92
2023-01-05T23:20:27.300Z,-20.93
2023-01-05T23:22:56.534Z,-20.95
2023-01-05T23:25:25.598Z,-20.95
2023-01-05T23:27:56.918Z,-20.94
2023-01-05T23:30:26.165Z,-20.96
2023-01-05T23:32:55.433Z,-21.01
2023-01-05T23:35:24.497Z,-21.10
2023-01-05T23:37:53.631Z,-21.11
2023-01-05T23:40:22.745Z,-21.12
2023-01-05T23:42:51.787Z,-21.17
2023-01-05T23:45:22.222Z,-20.74
2023-01-05T23:47:51.202Z,-20.75
2023-01-05T23:50:20.180Z,-21.02
2023-01-05T23:52:49.240Z,-21.12
2023-01-05T23:55:18.540Z,-21.18
2023-01-05T23:57:47.598Z,-21.05
